Time;durP1;ratioP1;P1;durP2;ratioP2;P2;SDS_P1;SDS_P2;PMS_P1;PMS_P2;Temp;Humidity;BMP_temperature;BMP_pressure;BME280_temperature;BME280_humidity;BME280_pressure;Samples;Min_cycle;Max_cycle;Signal;HPM_P1;HPM_P2
2023/03/23 00:01:26;;;;;;;2.45;1.80;;;16.00;62.20;;;;;;5075636;28;20029;-53
2023/03/23 00:03:56;;;;;;;3.85;2.20;;;16.00;62.20;;;;;;5060963;28;20041;-51
2023/03/23 00:06:27;;;;;;;2.42;1.92;;;16.00;62.20;;;;;;5071944;28;20062;-49
2023/03/23 00:08:59;;;;;;;2.42;1.85;;;16.00;62.40;;;;;;5055686;28;20073;-50
2023/03/23 00:11:32;;;;;;;2.35;1.80;;;16.00;62.30;;;;;;5085648;28;20047;-49
2023/03/23 00:14:00;;;;;;;2.22;2.03;;;16.00;62.30;;;;;;5071573;28;20068;-52
2023/03/23 00:16:30;;;;;;;2.45;1.70;;;16.00;62.40;;;;;;5089065;28;20040;-50
2023/03/23 00:19:03;;;;;;;1.92;1.73;;;16.00;62.40;;;;;;5089433;28;20033;-48
2023/03/23 00:21:41;;;;;;;2.78;2.03;;;16.00;62.50;;;;;;5077022;28;20035;-49
2023/03/23 00:24:08;;;;;;;2.47;1.83;;;16.00;62.50;;;;;;5075302;28;20039;-51
2023/03/23 00:26:35;;;;;;;3.85;1.80;;;16.00;63.20;;;;;;5053617;28;20047;-50
2023/03/23 00:29:03;;;;;;;2.55;1.92;;;15.90;62.50;;;;;;5059386;28;20039;-49
2023/03/23 00:31:32;;;;;;;2.20;1.80;;;15.90;62.60;;;;;;5074461;28;20043;-51
2023/03/23 00:34:04;;;;;;;2.88;2.30;;;15.90;62.60;;;;;;5071305;28;20041;-51
2023/03/23 00:36:34;;;;;;;2.13;1.90;;;15.90;62.80;;;;;;5071423;28;20028;-48
2023/03/23 00:39:03;;;;;;;2.38;2.17;;;15.90;62.70;;;;;;5082367;28;20036;-52
2023/03/23 00:41:30;;;;;;;3.05;2.13;;;15.90;62.60;;;;;;5061530;28;20107;-48
2023/03/23 00:43:57;;;;;;;2.88;2.20;;;15.90;62.70;;;;;;5069858;28;20080;-52
2023/03/23 00:46:24;;;;;;;2.15;1.95;;;15.90;62.70;;;;;;5060046;28;20040;-53
2023/03/23 00:48:51;;;;;;;2.22;2.00;;;15.90;62.80;;;;;;5064527;28;20032;-52
2023/03/23 00:51:23;;;;;;;3.75;2.10;;;15.90;62.80;;;;;;5078255;28;20097;-50
2023/03/23 00:53:50;;;;;;;2.03;1.73;;;15.90;62.90;;;;;;5088524;28;20031;-53
2023/03/23 00:56:18;;;;;;;2.50;2.30;;;15.90;62.90;;;;;;5078465;28;20449;-52
2023/03/23 00:58:45;;;;;;;2.50;1.90;;;15.90;62.90;;;;;;5071247;28;20032;-53
2023/03/23 01:01:11;;;;;;;2.58;2.17;;;15.90;63.00;;;;;;5071120;28;20554;-52
2023/03/23 01:03:39;;;;;;;2.45;2.25;;;15.90;62.90;;;;;;5054396;28;20071;-52
2023/03/23 01:06:13;;;;;;;2.78;2.17;;;15.90;63.00;;;;;;5078818;28;20031;-49
2023/03/23 01:08:45;;;;;;;3.35;2.35;;;15.80;63.10;;;;;;5075559;28;20078;-52
2023/03/23 01:11:15;;;;;;;4.22;1.98;;;15.80;63.10;;;;;;5041030;28;20037;-52
2023/03/23 01:13:42;;;;;;;3.63;2.17;;;15.90;63.10;;;;;;5079451;28;20501;-51
2023/03/23 01:16:10;;;;;;;2.20;1.98;;;15.90;63.20;;;;;;5081437;28;20124;-54
2023/03/23 01:18:38;;;;;;;2.58;2.17;;;15.80;63.20;;;;;;5075940;28;20489;-49
2023/03/23 01:21:15;;;;;;;2.08;1.85;;;15.90;63.20;;;;;;5059895;28;20513;-49
2023/03/23 01:23:41;;;;;;;2.40;1.77;;;15.90;63.30;;;;;;5075866;28;20048;-54
2023/03/23 01:26:09;;;;;;;2.25;2.00;;;15.80;63.20;;;;;;5052469;28;20064;-52
2023/03/23 01:28:40;;;;;;;2.42;2.10;;;15.90;63.30;;;;;;5054357;28;20040;-52
2023/03/23 01:31:11;;;;;;;2.05;1.85;;;15.90;63.30;;;;;;5057702;28;20074;-50
2023/03/23 01:33:39;;;;;;;2.60;2.10;;;15.80;63.30;;;;;;5052945;28;20036;-52
2023/03/23 01:36:10;;;;;;;2.15;1.77;;;15.80;63.30;;;;;;5062422;28;20117;-55
2023/03/23 01:38:36;;;;;;;2.65;1.77;;;15.90;63.60;;;;;;5065349;28;20037;-53
2023/03/23 01:41:05;;;;;;;2.38;1.90;;;15.90;63.40;;;;;;5059835;28;20061;-51
2023/03/23 01:43:31;;;;;;;5.50;2.38;;;15.90;63.60;;;;;;5052588;28;20107;-52
2023/03/23 01:45:57;;;;;;;4.78;2.42;;;15.80;63.60;;;;;;5060498;28;20032;-52
2023/03/23 01:48:33;;;;;;;2.92;1.88;;;15.80;63.60;;;;;;5059788;28;20174;-51
2023/03/23 01:51:15;;;;;;;1.90;1.73;;;15.80;63.90;;;;;;5072955;28;20033;-49
2023/03/23 01:54:00;;;;;;;3.45;2.35;;;15.80;64.10;;;;;;5074222;28;20154;-51
2023/03/23 01:56:40;;;;;;;2.65;2.40;;;15.80;64.00;;;;;;5052432;28;20043;-52
2023/03/23 01:59:10;;;;;;;;;;;15.80;64.20;;;;;;5052962;28;20036;-52
2023/03/23 02:01:42;;;;;;;2.55;1.92;;;15.80;63.90;;;;;;5053548;28;20006;-53
2023/03/23 02:04:09;;;;;;;1.83;1.70;;;15.80;63.60;;;;;;5046220;28;20036;-52
2023/03/23 02:06:36;;;;;;;2.42;1.70;;;15.80;63.80;;;;;;5059168;28;20032;-49
2023/03/23 02:09:16;;;;;;;2.75;2.40;;;15.80;63.90;;;;;;5067205;28;20096;-53
2023/03/23 02:11:43;;;;;;;4.40;2.20;;;15.80;64.10;;;;;;5083782;28;20067;-50
2023/03/23 02:14:09;;;;;;;2.10;1.90;;;15.70;64.00;;;;;;5071318;28;20065;-54
2023/03/23 02:16:52;;;;;;;2.30;2.05;;;15.70;64.20;;;;;;5060238;28;20032;-52
2023/03/23 02:19:51;;;;;;;3.25;2.25;;;15.70;64.70;;;;;;5064251;28;20039;-52
2023/03/23 02:22:53;;;;;;;3.35;2.33;;;15.70;64.70;;;;;;5060024;28;20694;-52
2023/03/23 02:26:09;;;;;;;2.40;2.20;;;15.70;64.60;;;;;;5085873;28;20031;-49
2023/03/23 02:28:43;;;;;;;2.50;2.13;;;15.70;64.60;;;;;;4987715;28;20035;-51
2023/03/23 02:31:57;;;;;;;2.53;1.80;;;15.70;64.50;;;;;;5052075;28;20060;-52
2023/03/23 02:34:36;;;;;;;3.80;2.13;;;15.70;64.60;;;;;;5027282;28;20081;-49
2023/03/23 02:37:11;;;;;;;2.00;1.80;;;15.60;64.40;;;;;;5051169;28;20032;-53
2023/03/23 02:39:39;;;;;;;2.17;1.85;;;15.60;64.50;;;;;;5071473;28;20118;-53
2023/03/23 02:42:11;;;;;;;2.70;2.25;;;15.60;64.50;;;;;;5057619;28;20500;-51
2023/03/23 02:44:40;;;;;;;2.07;1.87;;;15.60;64.50;;;;;;5051787;28;20044;-51
2023/03/23 02:47:11;;;;;;;2.75;2.20;;;15.60;64.50;;;;;;5077084;28;20040;-49
2023/03/23 02:49:40;;;;;;;4.22;2.15;;;15.60;64.60;;;;;;5059298;28;20115;-51
2023/03/23 02:52:12;;;;;;;2.63;2.33;;;15.60;64.60;;;;;;5076679;28;20040;-53
2023/03/23 02:54:39;;;;;;;2.30;2.10;;;15.60;64.70;;;;;;5051936;28;20635;-49
2023/03/23 02:57:06;;;;;;;1.88;1.75;;;15.60;64.70;;;;;;5050989;28;20153;-49
2023/03/23 02:59:34;;;;;;;2.13;1.50;;;15.60;64.70;;;;;;5051047;28;20497;-51
2023/03/23 03:02:06;;;;;;;1.95;1.85;;;15.60;64.60;;;;;;5049196;28;20563;-55
2023/03/23 03:04:34;;;;;;;;;;;15.60;64.70;;;;;;5056630;28;20035;-54
2023/03/23 03:07:15;;;;;;;2.10;1.75;;;15.70;64.60;;;;;;5051047;28;19916;-54
2023/03/23 03:09:51;;;;;;;;;;;15.70;64.60;;;;;;5078297;28;20037;-52
2023/03/23 03:12:23;;;;;;;1.73;1.48;;;15.70;64.40;;;;;;5077523;28;19948;-53
2023/03/23 03:14:56;;;;;;;;;;;15.70;64.10;;;;;;5061479;28;20466;-52
2023/03/23 03:17:28;;;;;;;1.58;1.48;;;15.90;65.00;;;;;;5055415;28;19944;-50
2023/03/23 03:20:09;;;;;;;1.92;1.70;;;15.70;64.20;;;;;;5083446;28;20046;-49
2023/03/23 03:22:41;;;;;;;2.20;1.70;;;15.70;64.50;;;;;;5080304;28;20028;-53
2023/03/23 03:25:09;;;;;;;2.42;1.80;;;15.60;64.50;;;;;;5073538;28;20031;-52
2023/03/23 03:27:35;;;;;;;2.05;1.70;;;15.60;64.60;;;;;;5054970;28;20572;-51
2023/03/23 03:30:21;;;;;;;1.90;1.80;;;15.60;64.70;;;;;;5078217;28;20028;-50
2023/03/23 03:32:53;;;;;;;3.20;1.92;;;15.60;64.80;;;;;;5058777;28;20156;-49
2023/03/23 03:35:24;;;;;;;2.08;1.58;;;15.60;64.90;;;;;;5062249;28;20025;-49
2023/03/23 03:37:51;;;;;;;1.88;1.65;;;15.60;65.00;;;;;;5070113;28;20055;-53
2023/03/23 03:40:20;;;;;;;1.90;1.77;;;15.60;64.80;;;;;;5055180;28;20098;-49
2023/03/23 03:42:45;;;;;;;2.08;1.60;;;15.50;64.80;;;;;;5037979;28;20040;-49
2023/03/23 03:45:17;;;;;;;1.90;1.70;;;15.50;64.80;;;;;;5056293;28;20033;-52
2023/03/23 03:47:46;;;;;;;2.08;1.88;;;15.50;64.90;;;;;;5068192;28;20062;-50
2023/03/23 03:50:16;;;;;;;1.92;1.73;;;15.60;65.60;;;;;;5034254;22;20088;-46
2023/03/23 03:52:42;;;;;;;3.03;1.95;;;15.50;64.90;;;;;;5032875;28;20037;-46
2023/03/23 03:55:10;;;;;;;3.75;2.17;;;15.50;65.00;;;;;;5030725;28;20041;-49
2023/03/23 03:57:38;;;;;;;1.55;1.45;;;15.50;64.90;;;;;;5031209;28;20037;-48
2023/03/23 04:00:24;;;;;;;2.28;2.15;;;15.60;65.00;;;;;;5041309;28;20099;-47
2023/03/23 04:02:56;;;;;;;2.75;2.35;;;15.60;65.00;;;;;;5025912;28;20033;-50
2023/03/23 04:05:41;;;;;;;2.38;1.73;;;15.60;64.90;;;;;;5019891;28;20386;-47
2023/03/23 04:08:07;;;;;;;2.08;1.77;;;15.60;64.80;;;;;;5023723;28;20041;-46
2023/03/23 04:10:36;;;;;;;1.98;1.85;;;15.60;64.80;;;;;;5050349;28;20037;-46
2023/03/23 04:13:04;;;;;;;1.88;1.75;;;15.60;65.60;;;;;;5032401;28;20036;-46
2023/03/23 04:15:50;;;;;;;3.00;1.85;;;15.60;64.90;;;;;;5038580;28;20126;-47
2023/03/23 04:18:20;;;;;;;2.10;1.92;;;15.60;64.80;;;;;;5040068;28;20401;-46
2023/03/23 04:20:51;;;;;;;2.22;2.03;;;15.60;64.90;;;;;;5033851;28;20572;-50
2023/03/23 04:23:22;;;;;;;2.65;1.88;;;15.60;64.80;;;;;;5034234;28;20509;-46
2023/03/23 04:25:51;;;;;;;2.17;1.67;;;15.60;64.80;;;;;;5049180;28;20051;-45
2023/03/23 04:28:18;;;;;;;2.33;1.92;;;15.60;64.80;;;;;;5037312;28;20025;-48
2023/03/23 04:31:00;;;;;;;2.17;1.80;;;15.60;64.80;;;;;;5029505;28;20039;-47
2023/03/23 04:33:30;;;;;;;2.92;1.73;;;15.60;64.80;;;;;;5025524;28;20036;-46
2023/03/23 04:36:00;;;;;;;2.65;1.80;;;15.60;64.80;;;;;;5016282;28;20043;-46
2023/03/23 04:38:38;;;;;;;3.63;2.03;;;15.60;64.80;;;;;;5014675;28;20083;-48
2023/03/23 04:41:11;;;;;;;1.50;1.40;;;15.60;64.80;;;;;;5032725;28;20413;-47
2023/03/23 04:43:46;;;;;;;2.58;2.03;;;15.60;64.80;;;;;;5034415;28;20091;-47
2023/03/23 04:46:28;;;;;;;1.92;1.77;;;15.60;64.70;;;;;;5021146;28;20033;-45
2023/03/23 04:48:54;;;;;;;2.17;1.38;;;15.60;64.80;;;;;;5038745;28;20033;-47
2023/03/23 04:51:28;;;;;;;1.80;1.67;;;15.60;64.80;;;;;;5020964;28;20482;-50
2023/03/23 04:53:55;;;;;;;2.42;1.60;;;15.50;64.70;;;;;;5022407;28;20150;-49
2023/03/23 04:56:22;;;;;;;2.65;2.03;;;15.50;64.70;;;;;;5032716;28;20029;-48
2023/03/23 04:58:48;;;;;;;2.00;1.85;;;15.50;64.70;;;;;;5025400;28;20120;-45
2023/03/23 05:01:22;;;;;;;1.58;1.48;;;15.50;64.70;;;;;;5028188;28;20032;-48
2023/03/23 05:04:02;;;;;;;2.78;1.70;;;15.50;64.70;;;;;;5032682;28;20040;-49
2023/03/23 05:06:28;;;;;;;2.30;2.10;;;15.50;64.70;;;;;;5032818;28;20060;-49
2023/03/23 05:09:02;;;;;;;3.03;1.77;;;15.50;64.70;;;;;;5026739;28;20083;-47
2023/03/23 05:11:29;;;;;;;2.22;1.67;;;15.50;64.70;;;;;;5041303;28;20086;-49
2023/03/23 05:13:55;;;;;;;1.92;1.70;;;15.50;64.60;;;;;;5031420;28;20436;-47
2023/03/23 05:16:25;;;;;;;1.75;1.27;;;15.50;64.60;;;;;;5043684;28;20060;-47
2023/03/23 05:18:50;;;;;;;3.15;1.65;;;15.50;64.60;;;;;;5018670;28;20061;-46
2023/03/23 05:21:18;;;;;;;1.50;1.40;;;15.50;64.50;;;;;;5034675;28;20032;-48
2023/03/23 05:23:54;;;;;;;3.90;2.00;;;15.50;64.50;;;;;;5022640;28;20198;-46
2023/03/23 05:26:23;;;;;;;2.72;1.77;;;15.50;64.50;;;;;;5022696;28;20029;-47
2023/03/23 05:28:56;;;;;;;2.67;1.80;;;15.50;64.50;;;;;;5025937;28;20463;-48
2023/03/23 05:31:27;;;;;;;2.50;1.75;;;15.50;64.40;;;;;;5022440;28;20057;-47
2023/03/23 05:33:52;;;;;;;1.90;1.73;;;15.50;64.40;;;;;;5039124;28;20063;-45
2023/03/23 05:36:25;;;;;;;2.15;1.98;;;15.50;64.40;;;;;;4989169;28;20029;-50
2023/03/23 05:39:05;;;;;;;3.08;2.15;;;15.50;64.30;;;;;;5031667;28;20033;-45
2023/03/23 05:41:51;;;;;;;5.93;2.17;;;15.50;64.20;;;;;;5040882;28;20072;-47
2023/03/23 05:44:17;;;;;;;4.55;1.80;;;15.50;64.10;;;;;;5026367;28;20036;-46
2023/03/23 05:46:50;;;;;;;2.25;2.05;;;15.50;64.10;;;;;;5025281;28;20493;-45
2023/03/23 05:49:18;;;;;;;3.22;2.00;;;15.50;64.10;;;;;;5022465;28;20127;-45
2023/03/23 05:51:46;;;;;;;2.13;1.83;;;15.50;64.00;;;;;;5041219;28;20036;-46
2023/03/23 05:54:14;;;;;;;2.78;1.55;;;15.50;63.90;;;;;;5045371;28;20056;-45
2023/03/23 05:56:41;;;;;;;2.45;1.52;;;15.50;63.90;;;;;;5045974;28;20406;-45
2023/03/23 05:59:15;;;;;;;2.63;1.85;;;15.50;63.80;;;;;;5041114;28;20473;-44
2023/03/23 06:01:44;;;;;;;2.63;2.03;;;15.50;63.80;;;;;;5049173;28;20048;-47
2023/03/23 06:04:11;;;;;;;3.33;1.75;;;15.50;63.80;;;;;;5037700;28;20029;-44
2023/03/23 06:06:49;;;;;;;5.43;2.03;;;15.50;63.70;;;;;;5028412;28;20036;-45
2023/03/23 06:09:17;;;;;;;3.30;1.88;;;15.50;63.60;;;;;;5025502;28;20033;-44
2023/03/23 06:12:01;;;;;;;7.63;2.17;;;15.50;63.60;;;;;;5018235;28;20573;-47
2023/03/23 06:14:41;;;;;;;3.25;1.90;;;15.60;63.50;;;;;;5016818;28;20641;-45
2023/03/23 06:17:07;;;;;;;3.72;2.35;;;15.60;63.40;;;;;;5020656;28;20041;-48
2023/03/23 06:19:34;;;;;;;4.28;1.85;;;15.60;63.30;;;;;;5024717;28;20022;-47
2023/03/23 06:22:08;;;;;;;4.43;1.67;;;15.60;63.20;;;;;;5024099;28;20049;-49
2023/03/23 06:25:05;;;;;;;1.75;1.45;;;15.60;63.10;;;;;;5014116;28;20047;-48
2023/03/23 06:27:37;;;;;;;4.35;1.70;;;15.70;63.10;;;;;;5023124;28;20083;-49
2023/03/23 06:30:05;;;;;;;3.47;1.70;;;15.70;62.90;;;;;;5036520;28;20049;-46
2023/03/23 06:32:32;;;;;;;1.92;1.40;;;15.70;62.90;;;;;;5015928;28;20040;-47
2023/03/23 06:34:59;;;;;;;2.85;1.35;;;15.70;62.80;;;;;;5011589;28;20513;-45
2023/03/23 06:37:43;;;;;;;2.70;1.90;;;15.70;62.80;;;;;;5035501;28;20149;-49
2023/03/23 06:40:28;;;;;;;2.15;1.25;;;15.80;62.90;;;;;;5025413;28;20041;-49
2023/03/23 06:43:01;;;;;;;1.83;1.20;;;15.80;62.70;;;;;;5029447;28;20073;-46
2023/03/23 06:45:46;;;;;;;2.65;1.75;;;15.80;62.60;;;;;;5043746;28;20033;-47
2023/03/23 06:48:44;;;;;;;2.20;1.25;;;15.80;62.50;;;;;;5038004;28;20052;-44
2023/03/23 06:51:14;;;;;;;3.65;1.45;;;15.90;62.50;;;;;;5022223;28;20036;-49
2023/03/23 06:53:45;;;;;;;1.27;1.17;;;15.90;62.40;;;;;;5024208;28;20124;-47
2023/03/23 06:56:13;;;;;;;3.35;1.48;;;15.90;62.40;;;;;;5018446;28;20037;-48
2023/03/23 06:58:41;;;;;;;3.13;1.40;;;15.90;62.20;;;;;;5038980;28;20048;-45
2023/03/23 07:01:09;;;;;;;1.80;1.02;;;15.90;62.20;;;;;;5037779;28;20111;-44
2023/03/23 07:03:41;;;;;;;2.83;1.73;;;15.90;62.20;;;;;;5028137;28;20417;-49
2023/03/23 07:06:10;;;;;;;4.88;1.67;;;15.90;62.20;;;;;;5035671;28;20095;-44
2023/03/23 07:08:43;;;;;;;2.65;1.23;;;15.90;62.20;;;;;;5027430;28;20045;-48
2023/03/23 07:11:13;;;;;;;6.03;2.25;;;16.00;62.30;;;;;;5017908;28;20034;-48
2023/03/23 07:13:40;;;;;;;2.13;1.38;;;16.00;62.10;;;;;;5010526;28;20825;-46
2023/03/23 07:16:06;;;;;;;2.15;1.10;;;16.00;62.10;;;;;;5026797;28;20038;-47
2023/03/23 07:18:32;;;;;;;3.22;1.00;;;16.00;62.00;;;;;;5012465;28;20029;-46
2023/03/23 07:21:00;;;;;;;1.35;1.25;;;16.00;61.80;;;;;;5019918;28;20068;-47
2023/03/23 07:23:31;;;;;;;3.70;1.55;;;16.10;61.70;;;;;;5033096;28;20025;-47
2023/03/23 07:26:09;;;;;;;2.55;1.33;;;16.10;61.50;;;;;;5036706;28;20037;-46
2023/03/23 07:28:40;;;;;;;2.13;1.40;;;16.10;61.40;;;;;;5012264;28;20413;-45
2023/03/23 07:31:24;;;;;;;4.07;1.20;;;16.10;61.40;;;;;;5031251;28;20435;-45
2023/03/23 07:33:51;;;;;;;2.40;1.20;;;16.10;61.30;;;;;;5037311;28;20054;-45
2023/03/23 07:36:18;;;;;;;3.25;1.48;;;16.10;61.20;;;;;;5038182;28;20033;-49
2023/03/23 07:38:44;;;;;;;5.55;1.75;;;16.20;61.20;;;;;;5023755;28;20029;-48
2023/03/23 07:41:09;;;;;;;3.33;1.30;;;16.20;61.00;;;;;;5038937;28;20044;-45
2023/03/23 07:43:38;;;;;;;2.08;1.00;;;16.20;61.00;;;;;;5036114;28;20049;-46
2023/03/23 07:46:10;;;;;;;3.55;1.55;;;16.20;60.80;;;;;;5036738;28;20104;-45
2023/03/23 07:48:47;;;;;;;3.53;1.05;;;16.20;61.00;;;;;;5038041;28;20401;-47
2023/03/23 07:51:16;;;;;;;1.92;1.10;;;16.20;60.80;;;;;;5041901;28;20025;-47
2023/03/23 07:53:46;;;;;;;2.40;1.30;;;16.30;60.70;;;;;;5031070;28;20175;-50
2023/03/23 07:56:47;;;;;;;1.90;1.10;;;16.30;60.70;;;;;;5031858;28;20128;-50
2023/03/23 07:59:16;;;;;;;2.72;0.73;;;16.20;60.70;;;;;;5008325;28;20453;-49
2023/03/23 08:01:43;;;;;;;4.18;1.30;;;16.30;60.70;;;;;;5022764;28;20033;-50
2023/03/23 08:04:27;;;;;;;3.15;1.23;;;16.40;60.70;;;;;;5040100;28;20688;-46
2023/03/23 08:07:16;;;;;;;2.80;1.20;;;16.40;60.50;;;;;;5034259;28;20091;-47
2023/03/23 08:09:53;;;;;;;3.17;0.95;;;16.40;60.40;;;;;;5026815;28;20529;-48
2023/03/23 08:12:31;;;;;;;6.32;1.42;;;16.50;60.20;;;;;;5036791;28;20575;-49
2023/03/23 08:15:15;;;;;;;3.58;1.10;;;16.50;60.20;;;;;;5043020;28;20045;-48
2023/03/23 08:17:52;;;;;;;3.38;1.10;;;16.60;60.20;;;;;;5017019;28;20084;-47
2023/03/23 08:20:18;;;;;;;4.28;1.00;;;16.60;60.10;;;;;;5043756;28;20041;-47
2023/03/23 08:22:55;;;;;;;4.10;1.10;;;16.60;59.90;;;;;;5050369;28;20037;-49
2023/03/23 08:25:39;;;;;;;2.78;1.10;;;16.70;59.90;;;;;;5047210;28;20083;-47
2023/03/23 08:28:23;;;;;;;4.97;1.45;;;16.70;59.70;;;;;;5040424;28;20099;-47
2023/03/23 08:31:14;;;;;;;1.88;0.85;;;16.80;59.60;;;;;;5041536;28;20051;-48
2023/03/23 08:34:07;;;;;;;1.65;1.00;;;16.80;59.60;;;;;;5017105;28;20072;-46
2023/03/23 08:36:55;;;;;;;1.92;1.38;;;16.90;59.30;;;;;;5042917;28;20056;-49
2023/03/23 08:39:53;;;;;;;2.67;1.15;;;17.00;59.30;;;;;;5034449;28;20128;-50
2023/03/23 08:42:43;;;;;;;1.52;0.88;;;17.00;59.00;;;;;;5037037;28;20111;-48
2023/03/23 08:45:29;;;;;;;1.35;1.00;;;17.10;58.60;;;;;;5045084;28;20452;-47
2023/03/23 08:48:03;;;;;;;5.57;2.35;;;17.10;58.60;;;;;;5040875;28;20041;-49
2023/03/23 08:50:41;;;;;;;3.38;1.20;;;17.00;58.40;;;;;;5047194;28;20425;-49
2023/03/23 08:53:30;;;;;;;4.68;2.03;;;17.00;58.50;;;;;;5021663;28;20052;-50
2023/03/23 08:56:10;;;;;;;3.03;1.20;;;17.00;58.30;;;;;;5051176;28;20517;-47
2023/03/23 08:58:45;;;;;;;3.38;1.00;;;17.00;58.30;;;;;;5026712;28;20499;-46
2023/03/23 09:01:37;;;;;;;2.88;0.80;;;16.90;58.40;;;;;;5014942;28;20063;-48
2023/03/23 09:04:18;;;;;;;2.03;1.02;;;16.90;58.20;;;;;;5023044;28;20059;-46
2023/03/23 09:07:02;;;;;;;2.13;1.50;;;16.90;58.40;;;;;;5031321;28;20041;-49
2023/03/23 09:09:28;;;;;;;4.63;1.45;;;16.90;58.50;;;;;;5036758;28;20522;-50
2023/03/23 09:11:54;;;;;;;8.85;1.05;;;16.80;58.60;;;;;;5041212;28;20044;-49
2023/03/23 09:14:20;;;;;;;2.47;0.70;;;16.80;59.50;;;;;;5050838;28;20036;-46
2023/03/23 09:16:46;;;;;;;1.48;0.47;;;16.70;62.60;;;;;;5050754;28;20501;-50
2023/03/23 09:19:12;;;;;;;1.45;0.40;;;16.50;63.10;;;;;;5031789;28;20035;-48
2023/03/23 09:21:38;;;;;;;1.63;0.43;;;16.20;63.90;;;;;;5046906;28;20037;-50
2023/03/23 09:24:04;;;;;;;1.83;0.93;;;15.80;64.50;;;;;;5043992;28;20033;-49
2023/03/23 09:26:31;;;;;;;0.95;0.30;;;15.50;65.30;;;;;;5043546;28;20036;-50
2023/03/23 09:28:57;;;;;;;1.20;0.40;;;15.20;66.10;;;;;;5045160;28;20401;-49
2023/03/23 09:31:26;;;;;;;1.38;0.60;;;15.00;66.80;;;;;;5049175;28;20029;-50
2023/03/23 09:33:52;;;;;;;1.52;0.30;;;14.70;67.50;;;;;;5047185;28;20040;-45
2023/03/23 09:36:21;;;;;;;1.33;0.50;;;14.50;68.40;;;;;;5050297;28;20033;-47
2023/03/23 09:38:48;;;;;;;1.20;0.30;;;14.30;69.20;;;;;;5051220;28;20051;-46
2023/03/23 09:41:36;;;;;;;1.65;0.30;;;14.10;69.90;;;;;;5049739;28;20040;-49
2023/03/23 09:44:36;;;;;;;0.70;0.20;;;14.00;71.20;;;;;;5047826;28;20108;-47
2023/03/23 09:47:25;;;;;;;1.73;0.40;;;13.80;72.50;;;;;;5028690;28;20041;-48
2023/03/23 09:49:59;;;;;;;0.73;0.30;;;13.70;72.90;;;;;;5045141;28;20041;-46
2023/03/23 09:52:43;;;;;;;2.20;0.40;;;13.60;72.60;;;;;;5025982;28;20063;-45
2023/03/23 09:55:14;;;;;;;2.45;1.00;;;13.60;73.10;;;;;;5023725;28;20046;-45
2023/03/23 09:58:01;;;;;;;2.58;1.75;;;13.50;73.20;;;;;;5040992;28;20060;-47
2023/03/23 10:00:35;;;;;;;2.47;0.60;;;13.40;74.30;;;;;;5006496;28;20034;-47
2023/03/23 10:03:17;;;;;;;1.17;0.90;;;13.40;73.50;;;;;;5030760;28;20037;-47
2023/03/23 10:06:00;;;;;;;1.23;0.52;;;13.30;73.90;;;;;;5047321;28;20106;-46
2023/03/23 10:08:30;;;;;;;1.77;0.73;;;13.30;74.00;;;;;;5032900;28;20084;-45
2023/03/23 10:11:17;;;;;;;1.38;0.50;;;13.30;74.60;;;;;;5043994;28;20181;-48
2023/03/23 10:14:04;;;;;;;3.78;0.70;;;13.30;75.70;;;;;;5047780;22;20045;-50
2023/03/23 10:16:36;;;;;;;0.95;0.50;;;13.30;76.60;;;;;;5043051;28;20037;-46
2023/03/23 10:19:20;;;;;;;2.20;0.63;;;13.30;75.80;;;;;;5049761;28;20489;-47
2023/03/23 10:21:52;;;;;;;1.23;0.40;;;13.30;76.80;;;;;;5028136;28;20497;-50
2023/03/23 10:24:24;;;;;;;1.33;0.70;;;13.30;76.40;;;;;;5048390;28;20037;-50
2023/03/23 10:27:10;;;;;;;0.60;0.60;;;13.40;76.40;;;;;;5047080;28;20558;-49
2023/03/23 10:29:43;;;;;;;1.17;0.70;;;13.40;77.00;;;;;;5024577;28;20060;-49
2023/03/23 10:32:24;;;;;;;2.08;0.98;;;13.40;76.50;;;;;;5030822;28;20045;-49
2023/03/23 10:34:57;;;;;;;1.13;0.80;;;13.40;77.00;;;;;;5051058;28;20059;-51
2023/03/23 10:37:25;;;;;;;;;;;13.40;76.70;;;;;;5043913;28;20040;-53
2023/03/23 10:39:59;;;;;;;2.03;1.00;;;13.50;78.50;;;;;;5044150;28;19924;-52
2023/03/23 10:42:35;;;;;;;2.78;0.75;;;13.50;77.10;;;;;;5047125;28;20087;-52
2023/03/23 10:45:29;;;;;;;2.78;1.27;;;13.50;77.20;;;;;;5049963;28;20033;-51
2023/03/23 10:48:12;;;;;;;1.95;1.08;;;13.50;78.90;;;;;;5048324;28;20047;-51
2023/03/23 10:50:39;;;;;;;3.08;1.83;;;13.60;78.90;;;;;;5044675;28;20041;-50
2023/03/23 10:53:23;;;;;;;2.38;1.20;;;13.60;77.60;;;;;;5029061;28;20673;-51
2023/03/23 10:55:49;;;;;;;2.00;0.88;;;13.60;78.60;;;;;;5048670;28;20071;-51
2023/03/23 10:58:33;;;;;;;2.42;1.08;;;13.60;77.60;;;;;;5029835;28;20041;-50
2023/03/23 11:01:01;;;;;;;3.47;1.00;;;13.70;79.00;;;;;;5044198;28;20052;-53
2023/03/23 11:03:43;;;;;;;2.08;0.75;;;13.70;77.70;;;;;;5047542;28;20033;-52
2023/03/23 11:06:30;;;;;;;2.15;0.90;;;13.70;78.60;;;;;;5048002;28;20605;-52
2023/03/23 11:09:17;;;;;;;1.92;0.60;;;13.70;77.90;;;;;;5043232;28;20048;-51
2023/03/23 11:11:55;;;;;;;1.95;0.60;;;13.80;79.30;;;;;;5025183;28;20493;-49
2023/03/23 11:14:34;;;;;;;4.45;0.70;;;13.80;78.80;;;;;;5039479;28;20029;-46
2023/03/23 11:17:06;;;;;;;3.10;0.80;;;13.80;78.60;;;;;;5038710;28;20124;-49
2023/03/23 11:19:37;;;;;;;2.33;0.63;;;13.80;77.80;;;;;;5048177;28;20120;-48
2023/03/23 11:22:13;;;;;;;1.88;0.60;;;13.80;78.10;;;;;;5042296;28;20631;-51
2023/03/23 11:24:46;;;;;;;2.50;0.82;;;13.80;78.40;;;;;;5041951;28;20045;-49
2023/03/23 11:27:15;;;;;;;1.55;0.80;;;13.80;78.70;;;;;;5045058;28;20152;-46
2023/03/23 11:30:31;;;;;;;2.85;0.80;;;13.90;79.00;;;;;;5047073;28;20116;-46
2023/03/23 11:33:01;;;;;;;0.85;0.45;;;13.90;80.40;;;;;;5022794;28;20134;-48
2023/03/23 11:35:28;;;;;;;4.90;1.00;;;14.00;80.00;;;;;;5029646;28;20605;-51
2023/03/23 11:37:57;;;;;;;2.50;1.17;;;14.10;80.10;;;;;;5033868;28;20041;-46
2023/03/23 11:40:29;;;;;;;2.42;1.70;;;14.20;80.00;;;;;;5027044;28;20056;-49
2023/03/23 11:43:24;;;;;;;1.75;1.20;;;14.20;80.20;;;;;;5047828;28;20037;-49
2023/03/23 11:45:58;;;;;;;1.58;1.42;;;14.30;81.70;;;;;;5028633;28;20544;-50
2023/03/23 11:48:54;;;;;;;1.77;1.40;;;14.30;80.70;;;;;;5045721;28;20131;-51
2023/03/23 11:51:46;;;;;;;3.58;1.80;;;14.50;80.80;;;;;;5031262;28;20057;-49
2023/03/23 11:54:23;;;;;;;2.25;1.27;;;14.50;81.10;;;;;;5049170;28;20033;-51
2023/03/23 11:56:49;;;;;;;1.55;1.45;;;14.50;80.50;;;;;;5047548;28;20037;-47
2023/03/23 11:59:25;;;;;;;1.67;1.10;;;14.50;80.00;;;;;;5048920;28;20519;-50
2023/03/23 12:02:04;;;;;;;1.65;1.30;;;14.60;80.60;;;;;;5049460;28;20033;-48
2023/03/23 12:05:17;;;;;;;2.80;1.63;;;14.70;80.70;;;;;;5033116;28;20057;-51
2023/03/23 12:08:01;;;;;;;2.55;1.63;;;14.70;81.60;;;;;;5042351;28;20052;-49
2023/03/23 12:10:33;;;;;;;2.03;1.40;;;14.70;80.20;;;;;;5047363;28;20067;-49
2023/03/23 12:13:29;;;;;;;2.17;1.97;;;14.70;79.40;;;;;;5030538;28;20044;-51
2023/03/23 12:16:10;;;;;;;1.65;1.30;;;14.70;79.90;;;;;;5048595;28;20037;-49
2023/03/23 12:18:57;;;;;;;5.05;2.90;;;14.70;80.30;;;;;;5042832;28;20461;-48
2023/03/23 12:21:53;;;;;;;3.22;2.10;;;14.70;80.80;;;;;;5043574;28;20055;-51
2023/03/23 12:25:03;;;;;;;2.00;1.33;;;14.70;80.50;;;;;;5050826;28;20041;-51
2023/03/23 12:27:48;;;;;;;3.17;1.98;;;14.80;80.40;;;;;;5042142;28;20116;-50
2023/03/23 12:30:26;;;;;;;2.97;1.38;;;14.70;80.00;;;;;;5046409;28;20041;-48
2023/03/23 12:32:56;;;;;;;5.20;1.42;;;14.70;79.80;;;;;;5046852;28;20579;-49
2023/03/23 12:35:37;;;;;;;4.05;1.65;;;14.70;79.00;;;;;;5031422;28;20151;-49
2023/03/23 12:38:02;;;;;;;4.65;1.30;;;14.70;79.40;;;;;;5048403;28;20045;-50
2023/03/23 12:40:36;;;;;;;4.13;1.55;;;14.70;79.60;;;;;;5046788;28;20455;-50
2023/03/23 12:43:26;;;;;;;3.03;1.20;;;14.70;80.30;;;;;;5049511;28;20029;-50
2023/03/23 12:46:39;;;;;;;2.97;1.50;;;14.70;80.90;;;;;;5028928;28;20473;-50
2023/03/23 12:49:07;;;;;;;;;;;14.80;82.20;;;;;;4948903;28;20039;-49
2023/03/23 12:51:40;;;;;;;2.85;1.30;;;14.90;82.50;;;;;;5012206;28;19917;-49
2023/03/23 12:54:32;;;;;;;3.63;1.88;;;14.90;81.50;;;;;;5047850;28;20396;-49
2023/03/23 12:57:07;;;;;;;3.78;1.75;;;15.00;81.80;;;;;;5048221;28;20051;-45
2023/03/23 12:59:48;;;;;;;1.88;1.30;;;15.00;80.90;;;;;;5048652;28;20033;-47
2023/03/23 13:02:35;;;;;;;3.08;1.70;;;15.00;81.40;;;;;;5050959;28;20061;-45
2023/03/23 13:05:10;;;;;;;5.30;1.85;;;15.10;81.50;;;;;;5033717;28;20036;-44
2023/03/23 13:07:49;;;;;;;5.80;1.88;;;15.20;82.00;;;;;;5051761;28;20035;-48
2023/03/23 13:10:33;;;;;;;2.13;1.73;;;15.30;82.30;;;;;;5046830;28;20910;-44
2023/03/23 13:12:59;;;;;;;2.97;1.60;;;15.40;83.30;;;;;;5050769;28;20044;-45
2023/03/23 13:15:46;;;;;;;3.67;1.55;;;15.50;83.10;;;;;;5045171;28;20064;-46
2023/03/23 13:18:24;;;;;;;2.88;1.88;;;15.60;83.70;;;;;;5033003;28;20044;-49
2023/03/23 13:21:11;;;;;;;5.13;2.30;;;15.80;82.70;;;;;;5047056;28;20102;-46
2023/03/23 13:23:51;;;;;;;2.55;1.80;;;15.90;82.30;;;;;;5048726;28;20033;-46
2023/03/23 13:26:21;;;;;;;2.53;1.95;;;15.90;82.30;;;;;;5050199;28;20537;-49
2023/03/23 13:28:57;;;;;;;2.50;1.98;;;16.00;81.80;;;;;;5031353;28;20051;-47